Time;durP1;ratioP1;P1;durP2;ratioP2;P2;SDS_P1;SDS_P2;PMS_P1;PMS_P2;Temp;Humidity;BMP_temperature;BMP_pressure;BME280_temperature;BME280_humidity;BME280_pressure;Samples;Min_cycle;Max_cycle;Signal;HPM_P1;HPM_P2
2023/06/20 00:01:07;;;;;;;7.82;4.10;;;16.30;99.90;;;;;;4130729;28;20038;-65
2023/06/20 00:03:08;;;;;;;6.95;4.80;;;16.20;99.90;;;;;;4130048;28;20518;-68
2023/06/20 00:05:09;;;;;;;5.18;4.68;;;16.20;99.90;;;;;;4130203;28;20553;-67
2023/06/20 00:07:10;;;;;;;4.93;4.32;;;16.20;99.90;;;;;;4130947;28;20077;-68
2023/06/20 00:09:11;;;;;;;6.35;4.28;;;16.20;99.90;;;;;;4130142;28;20442;-68
2023/06/20 00:11:12;;;;;;;5.97;4.68;;;16.20;99.90;;;;;;4130578;28;20104;-65
2023/06/20 00:13:17;;;;;;;5.35;4.43;;;16.20;99.90;;;;;;4129606;28;20042;-69
2023/06/20 00:15:25;;;;;;;6.43;4.93;;;16.10;99.90;;;;;;4130724;28;20039;-69
2023/06/20 00:17:26;;;;;;;6.65;4.38;;;16.10;99.90;;;;;;4127837;28;20039;-70
2023/06/20 00:19:28;;;;;;;5.55;4.40;;;16.10;99.90;;;;;;4131145;28;20431;-69
2023/06/20 00:21:29;;;;;;;8.50;4.75;;;16.10;99.90;;;;;;4129415;28;20050;-69
2023/06/20 00:23:30;;;;;;;6.47;4.47;;;16.10;99.90;;;;;;4131262;28;20483;-69
2023/06/20 00:25:31;;;;;;;5.22;4.72;;;16.10;99.90;;;;;;4129529;28;20022;-66
2023/06/20 00:27:32;;;;;;;7.45;4.95;;;16.00;99.90;;;;;;4130999;28;20030;-70
2023/06/20 00:29:34;;;;;;;5.18;4.28;;;15.90;99.90;;;;;;4129031;28;20030;-67
2023/06/20 00:31:36;;;;;;;6.50;4.72;;;15.80;99.90;;;;;;4129843;28;20038;-70
2023/06/20 00:33:37;;;;;;;8.77;4.65;;;15.80;99.90;;;;;;4130115;28;20102;-67
2023/06/20 00:35:39;;;;;;;6.72;4.72;;;15.70;99.90;;;;;;4130362;28;20030;-69
2023/06/20 00:37:40;;;;;;;13.00;4.55;;;15.70;99.90;;;;;;4130127;28;20097;-65
2023/06/20 00:39:41;;;;;;;10.02;4.90;;;15.70;99.90;;;;;;4129606;28;20038;-69
2023/06/20 00:41:42;;;;;;;4.95;4.43;;;15.70;99.90;;;;;;4130592;28;20430;-69
2023/06/20 00:43:43;;;;;;;5.20;4.28;;;15.60;99.90;;;;;;4129299;28;20088;-70
2023/06/20 00:45:45;;;;;;;8.73;4.93;;;15.60;99.90;;;;;;4130349;28;20046;-69
2023/06/20 00:47:46;;;;;;;6.10;4.60;;;15.60;99.90;;;;;;4129205;28;20038;-65
2023/06/20 00:49:50;;;;;;;7.05;4.40;;;15.50;99.90;;;;;;4130701;28;20894;-68
2023/06/20 00:51:52;;;;;;;6.50;4.65;;;15.50;99.90;;;;;;4128539;28;20100;-68
2023/06/20 00:53:53;;;;;;;5.95;4.90;;;15.50;99.90;;;;;;4130863;28;20116;-69
2023/06/20 00:55:56;;;;;;;6.38;5.70;;;15.40;99.90;;;;;;4128594;28;20034;-66
2023/06/20 00:57:58;;;;;;;6.90;4.82;;;15.40;99.90;;;;;;4130345;28;20034;-67
2023/06/20 00:59:59;;;;;;;7.07;4.57;;;15.40;99.90;;;;;;4129684;28;20070;-64
2023/06/20 01:02:03;;;;;;;9.65;5.30;;;15.30;99.90;;;;;;4130594;28;20031;-68
2023/06/20 01:04:05;;;;;;;5.35;4.68;;;15.30;99.90;;;;;;4129212;28;20089;-69
2023/06/20 01:06:42;;;;;;;5.55;4.95;;;15.30;99.90;;;;;;4129538;28;20546;-70
2023/06/20 01:09:11;;;;;;;5.78;4.45;;;15.30;99.90;;;;;;4128780;28;20989;-67
2023/06/20 01:11:23;;;;;;;8.50;5.13;;;15.20;99.90;;;;;;4130129;28;20050;-69
2023/06/20 01:13:30;;;;;;;5.75;4.78;;;15.20;99.90;;;;;;4129453;28;20027;-68
2023/06/20 01:15:34;;;;;;;6.32;4.45;;;15.10;99.90;;;;;;4130536;28;20034;-68
2023/06/20 01:18:06;;;;;;;5.40;4.43;;;15.10;99.90;;;;;;4129459;28;20026;-66
2023/06/20 01:20:16;;;;;;;11.27;5.30;;;15.10;99.90;;;;;;4130012;28;20102;-68
2023/06/20 01:22:41;;;;;;;4.97;4.47;;;15.10;99.90;;;;;;4127203;28;20034;-68
2023/06/20 01:24:48;;;;;;;8.32;4.90;;;15.00;99.90;;;;;;4111064;28;20042;-64
2023/06/20 01:26:55;;;;;;;5.82;4.47;;;15.00;99.90;;;;;;4129212;28;20060;-68
2023/06/20 01:29:05;;;;;;;6.82;4.88;;;15.00;99.90;;;;;;4130301;28;20030;-65
2023/06/20 01:31:12;;;;;;;9.52;5.00;;;15.00;99.90;;;;;;4128328;28;20050;-65
2023/06/20 01:33:17;;;;;;;6.90;4.93;;;15.00;99.90;;;;;;4125267;28;20035;-62
2023/06/20 01:35:23;;;;;;;5.38;4.70;;;15.00;99.90;;;;;;4128056;28;20451;-69
2023/06/20 01:37:26;;;;;;;6.72;5.15;;;15.00;99.90;;;;;;4130086;28;20112;-65
2023/06/20 01:39:51;;;;;;;8.15;4.93;;;15.00;99.90;;;;;;4128923;28;20042;-67
2023/06/20 01:41:56;;;;;;;23.77;4.82;;;15.00;99.90;;;;;;4126868;28;20120;-69
2023/06/20 01:43:59;;;;;;;5.35;4.82;;;14.90;99.90;;;;;;4128774;28;20034;-69
2023/06/20 01:46:04;;;;;;;9.45;5.30;;;14.90;99.90;;;;;;4129344;28;20050;-61
2023/06/20 01:48:07;;;;;;;6.97;5.00;;;14.90;99.90;;;;;;4128452;28;20065;-68
2023/06/20 01:50:10;;;;;;;6.70;5.07;;;14.80;99.90;;;;;;4129851;28;20038;-69
2023/06/20 01:52:12;;;;;;;5.22;4.72;;;14.80;99.90;;;;;;4128561;28;20038;-68
2023/06/20 01:54:16;;;;;;;8.30;4.45;;;14.80;99.90;;;;;;4129459;28;20058;-69
2023/06/20 01:56:18;;;;;;;5.20;4.70;;;14.80;99.90;;;;;;4128658;28;20419;-68
2023/06/20 01:58:20;;;;;;;7.60;4.88;;;14.70;99.90;;;;;;4128832;28;20038;-68
2023/06/20 02:00:24;;;;;;;8.13;4.70;;;14.70;99.90;;;;;;4128706;28;20042;-69
2023/06/20 02:02:27;;;;;;;7.32;4.65;;;14.70;99.90;;;;;;4127535;28;20096;-64
2023/06/20 02:04:31;;;;;;;5.60;4.85;;;14.70;99.90;;;;;;4128698;28;20038;-63
2023/06/20 02:06:33;;;;;;;8.00;4.57;;;14.70;99.90;;;;;;4128523;28;20591;-66
2023/06/20 02:08:35;;;;;;;6.60;5.07;;;14.70;99.90;;;;;;4129150;28;20068;-68
2023/06/20 02:10:37;;;;;;;5.18;4.68;;;14.70;99.90;;;;;;4128053;28;20101;-67
2023/06/20 02:12:39;;;;;;;9.88;5.45;;;14.70;99.90;;;;;;4129012;28;20038;-68
2023/06/20 02:14:41;;;;;;;7.38;5.25;;;14.70;99.90;;;;;;4128536;28;20486;-68
2023/06/20 02:16:44;;;;;;;6.68;5.40;;;14.70;99.90;;;;;;4129575;28;20076;-66
2023/06/20 02:18:45;;;;;;;6.28;5.18;;;14.60;99.90;;;;;;4128516;28;20026;-70
2023/06/20 02:20:53;;;;;;;5.05;4.55;;;14.70;99.90;;;;;;4128799;28;20034;-68
2023/06/20 02:22:55;;;;;;;7.38;5.00;;;14.60;99.90;;;;;;4128132;28;20422;-62
2023/06/20 02:25:06;;;;;;;5.60;4.60;;;14.60;99.90;;;;;;4129553;28;20452;-65
2023/06/20 02:27:07;;;;;;;;;;;14.60;99.90;;;;;;4128842;28;20034;-68
2023/06/20 02:29:10;;;;;;;5.72;4.80;;;14.60;99.90;;;;;;4127081;28;20351;-61
2023/06/20 02:31:16;;;;;;;8.20;4.63;;;14.60;99.90;;;;;;4127941;28;20110;-63
2023/06/20 02:33:20;;;;;;;6.85;4.68;;;14.60;99.90;;;;;;4128706;28;20046;-62
2023/06/20 02:35:22;;;;;;;8.07;4.78;;;14.60;99.90;;;;;;4127647;28;20426;-63
2023/06/20 02:37:27;;;;;;;4.55;4.15;;;14.60;99.90;;;;;;4128701;28;20089;-66
2023/06/20 02:39:28;;;;;;;7.07;4.85;;;14.60;99.90;;;;;;4127777;28;20030;-64
2023/06/20 02:41:30;;;;;;;5.50;4.90;;;14.60;99.90;;;;;;4129072;28;20038;-62
2023/06/20 02:43:31;;;;;;;8.88;5.38;;;14.60;99.90;;;;;;4128386;28;20042;-69
2023/06/20 02:45:32;;;;;;;6.70;5.18;;;14.60;99.90;;;;;;4128748;28;20035;-68
2023/06/20 02:47:49;;;;;;;11.75;5.50;;;14.70;99.90;;;;;;4128772;28;20533;-68
2023/06/20 02:50:03;;;;;;;6.50;4.90;;;14.80;99.90;;;;;;4128705;28;20582;-66
2023/06/20 02:52:20;;;;;;;6.38;5.47;;;15.00;99.90;;;;;;4128357;28;20491;-67
2023/06/20 02:54:29;;;;;;;7.25;5.07;;;15.10;99.90;;;;;;4128638;28;20022;-68
2023/06/20 02:56:33;;;;;;;6.43;5.13;;;15.20;99.90;;;;;;4128552;28;20093;-67
2023/06/20 02:58:37;;;;;;;6.97;5.05;;;15.40;99.90;;;;;;4128072;28;20109;-65
2023/06/20 03:00:44;;;;;;;7.10;4.95;;;15.50;99.90;;;;;;4127946;28;20439;-61
2023/06/20 03:03:09;;;;;;;6.68;5.35;;;15.70;99.90;;;;;;4126918;28;20380;-61
2023/06/20 03:05:13;;;;;;;8.75;5.30;;;15.90;99.90;;;;;;4107759;28;20553;-62
2023/06/20 03:07:20;;;;;;;7.90;4.60;;;16.10;99.90;;;;;;4127260;28;20085;-61
2023/06/20 03:09:22;;;;;;;6.05;4.50;;;16.30;99.90;;;;;;4128333;28;20014;-62
2023/06/20 03:11:23;;;;;;;8.77;4.68;;;16.50;99.90;;;;;;4128089;28;20158;-62
2023/06/20 03:13:25;;;;;;;7.90;4.80;;;16.60;99.90;;;;;;4128585;28;20517;-62
2023/06/20 03:15:27;;;;;;;4.72;4.15;;;16.90;99.90;;;;;;4127721;28;20039;-65
2023/06/20 03:17:28;;;;;;;6.57;4.85;;;17.20;99.90;;;;;;4128924;28;20181;-64
2023/06/20 03:19:32;;;;;;;6.78;4.65;;;17.50;99.90;;;;;;4127652;28;20081;-67
2023/06/20 03:21:34;;;;;;;15.70;4.82;;;17.80;99.90;;;;;;4126825;28;20046;-62
2023/06/20 03:23:35;;;;;;;6.30;4.15;;;18.10;99.90;;;;;;4127597;28;20042;-62
2023/06/20 03:25:36;;;;;;;7.97;4.70;;;18.50;99.90;;;;;;4127406;28;20042;-61
2023/06/20 03:27:38;;;;;;;8.23;4.60;;;18.70;99.90;;;;;;4127737;28;20468;-61
2023/06/20 03:29:39;;;;;;;3.92;3.53;;;18.90;99.90;;;;;;4126688;28;20046;-62
2023/06/20 03:31:40;;;;;;;4.18;3.70;;;19.30;99.90;;;;;;4128390;28;20054;-62
2023/06/20 03:33:41;;;;;;;5.95;3.97;;;19.80;99.90;;;;;;4146521;28;20049;-62
2023/06/20 03:35:43;;;;;;;7.22;3.78;;;20.30;99.90;;;;;;4130919;28;20023;-62
2023/06/20 03:37:44;;;;;;;7.13;3.88;;;20.80;99.90;;;;;;4131271;28;20038;-62
2023/06/20 03:39:45;;;;;;;5.68;3.78;;;21.20;99.90;;;;;;4131232;28;20126;-71
2023/06/20 03:41:46;;;;;;;7.28;4.18;;;21.60;99.90;;;;;;4131178;28;20034;-66
2023/06/20 03:43:47;;;;;;;5.10;4.10;;;21.90;99.90;;;;;;4130969;28;20022;-68
2023/06/20 03:45:48;;;;;;;8.40;4.57;;;22.10;99.90;;;;;;4130467;28;20431;-68
2023/06/20 03:47:49;;;;;;;5.47;3.50;;;22.30;99.90;;;;;;4131231;28;20042;-67
2023/06/20 03:49:51;;;;;;;3.63;3.33;;;22.50;99.90;;;;;;4130288;28;20479;-69
2023/06/20 03:51:52;;;;;;;5.00;3.72;;;22.80;99.90;;;;;;4131245;28;20030;-68
2023/06/20 03:53:53;;;;;;;5.43;4.03;;;23.20;99.90;;;;;;4130395;28;20038;-68
2023/06/20 03:55:54;;;;;;;7.50;3.60;;;23.50;99.90;;;;;;4131844;28;20034;-67
2023/06/20 03:57:55;;;;;;;4.97;4.45;;;23.90;99.90;;;;;;4130680;28;20034;-70
2023/06/20 03:59:56;;;;;;;15.10;4.32;;;24.00;99.90;;;;;;4130952;28;20042;-69
2023/06/20 04:01:58;;;;;;;6.28;3.65;;;24.10;99.90;;;;;;4129523;28;20026;-64
2023/06/20 04:03:59;;;;;;;7.18;4.25;;;24.40;99.90;;;;;;4130719;28;20030;-67
2023/06/20 04:06:02;;;;;;;8.98;3.85;;;24.50;99.90;;;;;;4129079;28;20022;-69
2023/06/20 04:08:03;;;;;;;4.28;3.60;;;24.70;99.90;;;;;;4130567;28;20042;-69
2023/06/20 04:10:05;;;;;;;5.57;3.35;;;24.90;99.90;;;;;;4129224;28;20042;-68
2023/06/20 04:12:06;;;;;;;6.72;3.30;;;25.10;99.90;;;;;;4129718;28;20050;-66
2023/06/20 04:14:07;;;;;;;5.40;3.58;;;25.40;99.90;;;;;;4130358;28;20104;-63
2023/06/20 04:16:09;;;;;;;4.55;3.83;;;25.50;99.90;;;;;;4129645;28;20085;-70
2023/06/20 04:18:10;;;;;;;5.88;2.75;;;25.80;99.90;;;;;;4130936;28;20084;-65
2023/06/20 04:20:12;;;;;;;5.45;3.25;;;26.10;99.90;;;;;;4129130;28;20039;-64
2023/06/20 04:22:14;;;;;;;5.03;3.00;;;26.30;99.90;;;;;;4130968;28;20478;-67
2023/06/20 04:24:15;;;;;;;4.15;3.03;;;26.80;99.90;;;;;;4129958;28;20427;-66
2023/06/20 04:26:17;;;;;;;3.15;2.85;;;27.00;99.60;;;;;;4131288;28;20083;-65
2023/06/20 04:28:18;;;;;;;4.78;3.13;;;27.20;99.20;;;;;;4129706;28;20485;-63
2023/06/20 04:30:19;;;;;;;4.30;3.05;;;27.20;98.60;;;;;;4130710;28;20030;-65
2023/06/20 04:32:20;;;;;;;3.58;3.15;;;27.50;98.20;;;;;;4129822;28;20046;-62
2023/06/20 04:34:23;;;;;;;3.22;2.92;;;27.70;97.50;;;;;;4131076;28;20034;-63
2023/06/20 04:36:24;;;;;;;4.97;3.33;;;27.90;96.90;;;;;;4129220;28;20050;-67
2023/06/20 04:38:25;;;;;;;5.00;3.42;;;28.00;96.60;;;;;;4130401;28;20100;-70
2023/06/20 04:40:26;;;;;;;6.05;3.97;;;27.90;96.00;;;;;;4130119;28;20443;-64
2023/06/20 04:42:27;;;;;;;8.85;3.53;;;27.60;96.10;;;;;;4130359;28;20030;-69
2023/06/20 04:44:28;;;;;;;4.25;3.30;;;27.70;95.90;;;;;;4129234;28;20085;-65
2023/06/20 04:46:30;;;;;;;7.75;4.45;;;27.80;95.60;;;;;;4129831;28;20034;-65
2023/06/20 04:48:38;;;;;;;8.07;3.33;;;28.00;95.40;;;;;;4129960;28;20617;-67
2023/06/20 04:50:41;;;;;;;5.78;2.78;;;28.40;95.10;;;;;;4129356;28;20038;-64
2023/06/20 04:52:43;;;;;;;5.63;3.10;;;28.60;94.40;;;;;;4130570;28;20035;-70
2023/06/20 04:54:44;;;;;;;3.70;2.35;;;28.80;93.80;;;;;;4128736;28;20042;-71
2023/06/20 04:56:45;;;;;;;2.88;2.58;;;28.90;93.50;;;;;;4131098;28;20038;-69
2023/06/20 04:58:47;;;;;;;3.15;2.78;;;29.00;93.20;;;;;;4128912;28;20431;-68
2023/06/20 05:00:48;;;;;;;4.60;2.45;;;29.30;92.80;;;;;;4130032;28;20034;-68
2023/06/20 05:02:50;;;;;;;3.83;2.75;;;29.70;92.40;;;;;;4128485;28;20034;-68
2023/06/20 05:04:52;;;;;;;3.28;2.78;;;29.80;91.70;;;;;;4130103;28;20471;-70
2023/06/20 05:06:53;;;;;;;2.58;2.38;;;29.60;91.60;;;;;;4129146;28;20101;-64
2023/06/20 05:08:54;;;;;;;8.18;2.45;;;29.70;91.40;;;;;;4129935;28;20041;-62
2023/06/20 05:10:55;;;;;;;5.07;2.38;;;29.90;91.10;;;;;;4128697;28;20077;-67
2023/06/20 05:12:56;;;;;;;2.03;1.92;;;30.20;90.80;;;;;;4129817;28;20064;-70
2023/06/20 05:14:57;;;;;;;2.72;2.40;;;30.30;90.20;;;;;;4129115;28;20058;-66
2023/06/20 05:16:58;;;;;;;3.33;2.45;;;30.50;90.10;;;;;;4129474;28;20038;-68
2023/06/20 05:18:59;;;;;;;3.17;2.40;;;30.50;89.30;;;;;;4128895;28;20089;-68
2023/06/20 05:21:00;;;;;;;3.40;2.42;;;30.20;88.80;;;;;;4129142;28;20046;-66
2023/06/20 05:23:02;;;;;;;3.70;2.90;;;30.20;88.90;;;;;;4129336;28;20050;-66
2023/06/20 05:25:03;;;;;;;4.22;2.78;;;30.50;88.60;;;;;;4128595;28;20448;-68
2023/06/20 05:27:04;;;;;;;2.95;2.58;;;30.70;87.80;;;;;;4130110;28;20088;-65
2023/06/20 05:29:06;;;;;;;3.88;2.53;;;31.20;86.60;;;;;;4128472;28;20038;-66
2023/06/20 05:31:10;;;;;;;5.28;2.70;;;30.90;85.60;;;;;;4129181;28;20046;-69
2023/06/20 05:33:11;;;;;;;3.63;2.30;;;30.40;85.00;;;;;;4128252;28;20104;-67
2023/06/20 05:35:12;;;;;;;4.30;2.35;;;30.20;85.60;;;;;;4129492;28;20039;-66
2023/06/20 05:37:13;;;;;;;4.63;2.97;;;29.60;85.70;;;;;;4128697;28;20034;-69
2023/06/20 05:39:15;;;;;;;6.00;2.70;;;29.40;86.30;;;;;;4129588;28;20046;-68
2023/06/20 05:41:16;;;;;;;5.93;2.90;;;29.20;86.60;;;;;;4128148;28;20066;-68
2023/06/20 05:43:17;;;;;;;5.85;3.17;;;29.40;86.50;;;;;;4129171;28;20039;-69
2023/06/20 05:45:18;;;;;;;9.60;3.38;;;29.30;86.10;;;;;;4128360;28;20030;-64
2023/06/20 05:47:20;;;;;;;11.00;7.03;;;28.70;86.30;;;;;;4129041;28;20026;-67
2023/06/20 05:49:21;;;;;;;8.65;4.72;;;28.50;86.90;;;;;;4143407;28;20546;-66
2023/06/20 05:51:22;;;;;;;8.40;4.70;;;27.90;88.10;;;;;;4127405;28;20038;-66
2023/06/20 05:53:23;;;;;;;9.00;4.72;;;27.30;90.00;;;;;;4129289;28;20034;-68
2023/06/20 05:55:25;;;;;;;8.95;4.10;;;26.70;90.80;;;;;;4127885;28;20026;-62
2023/06/20 05:57:26;;;;;;;11.90;5.20;;;26.20;91.30;;;;;;4129902;28;20085;-64
2023/06/20 05:59:27;;;;;;;9.57;4.90;;;25.90;91.80;;;;;;4128093;28;20026;-69
2023/06/20 06:01:28;;;;;;;12.13;5.80;;;25.60;92.40;;;;;;4128898;28;20542;-62
2023/06/20 06:03:32;;;;;;;12.45;5.22;;;25.50;92.70;;;;;;4127843;28;20034;-68
2023/06/20 06:05:33;;;;;;;9.82;5.07;;;25.20;93.20;;;;;;4129208;28;20108;-65
2023/06/20 06:07:37;;;;;;;11.85;5.75;;;25.00;93.50;;;;;;4128114;28;20038;-63
2023/06/20 06:09:38;;;;;;;10.15;5.47;;;24.70;93.90;;;;;;4127279;28;20116;-66
2023/06/20 06:11:39;;;;;;;13.50;5.88;;;24.30;94.70;;;;;;4124052;28;20109;-64
2023/06/20 06:13:40;;;;;;;8.20;5.65;;;24.00;95.50;;;;;;4126398;28;20104;-66
2023/06/20 06:15:42;;;;;;;13.77;5.15;;;23.90;96.10;;;;;;4124908;28;20042;-64
2023/06/20 06:17:43;;;;;;;9.65;4.85;;;24.10;96.20;;;;;;4127614;28;20100;-68
2023/06/20 06:19:44;;;;;;;11.13;5.10;;;24.50;95.90;;;;;;4126261;28;20443;-64
2023/06/20 06:21:47;;;;;;;17.00;5.35;;;24.70;95.50;;;;;;4126958;28;20046;-65
2023/06/20 06:23:48;;;;;;;10.45;4.32;;;24.90;95.30;;;;;;4127696;28;20023;-64
2023/06/20 06:25:50;;;;;;;11.00;4.85;;;24.90;95.40;;;;;;4126890;28;20084;-67
2023/06/20 06:27:52;;;;;;;8.30;5.30;;;25.00;95.30;;;;;;4126866;28;20120;-64
2023/06/20 06:29:53;;;;;;;11.10;4.80;;;25.00;95.50;;;;;;4126633;28;20422;-65
2023/06/20 06:31:58;;;;;;;20.48;6.10;;;24.90;95.40;;;;;;4127604;28;20137;-66
2023/06/20 06:34:01;;;;;;;12.05;5.38;;;24.90;95.60;;;;;;4126921;28;20440;-63
2023/06/20 06:36:03;;;;;;;18.15;6.57;;;25.00;95.50;;;;;;4127067;28;20026;-64
2023/06/20 06:38:05;;;;;;;12.38;5.40;;;24.90;95.60;;;;;;4126078;28;20108;-66
2023/06/20 06:40:09;;;;;;;11.20;5.32;;;24.90;95.70;;;;;;4125241;28;20073;-66
2023/06/20 06:42:10;;;;;;;7.50;4.55;;;25.10;95.60;;;;;;4125170;28;20557;-63
2023/06/20 06:44:11;;;;;;;7.82;4.45;;;25.30;95.40;;;;;;4126630;28;20521;-68
2023/06/20 06:46:12;;;;;;;12.85;4.22;;;25.30;95.20;;;;;;4126139;28;20462;-62
2023/06/20 06:48:14;;;;;;;4.90;4.40;;;25.40;95.10;;;;;;4127127;28;20517;-62
2023/06/20 06:50:15;;;;;;;8.30;4.30;;;25.30;95.00;;;;;;4120515;28;20094;-63
2023/06/20 06:52:17;;;;;;;7.18;3.80;;;25.60;94.70;;;;;;4110970;28;20046;-62
2023/06/20 06:54:19;;;;;;;6.22;3.85;;;26.20;94.40;;;;;;4125857;28;20034;-62
2023/06/20 06:56:21;;;;;;;5.97;4.72;;;26.70;94.10;;;;;;4116646;28;20101;-63
2023/06/20 06:58:22;;;;;;;7.05;3.92;;;26.60;93.60;;;;;;4140799;28;20041;-63
2023/06/20 07:00:23;;;;;;;7.75;3.90;;;26.40;93.60;;;;;;4131787;28;20050;-61
2023/06/20 07:02:26;;;;;;;4.57;3.70;;;26.50;93.60;;;;;;4127699;28;20108;-61
2023/06/20 07:04:28;;;;;;;4.85;3.60;;;26.40;93.50;;;;;;4125765;28;20047;-62
2023/06/20 07:06:30;;;;;;;3.83;3.42;;;26.30;93.60;;;;;;4135610;28;20030;-62
2023/06/20 07:08:31;;;;;;;6.38;3.40;;;26.10;93.50;;;;;;4146035;28;20567;-63
2023/06/20 07:10:32;;;;;;;5.13;3.20;;;26.00;93.60;;;;;;4147048;28;20124;-63
2023/06/20 07:12:33;;;;;;;2.60;2.40;;;25.80;93.60;;;;;;4140288;28;20041;-69
2023/06/20 07:14:34;;;;;;;3.20;2.97;;;25.60;93.40;;;;;;4147233;28;20034;-70
2023/06/20 07:16:36;;;;;;;2.80;2.58;;;25.40;93.50;;;;;;4145565;28;20037;-67
2023/06/20 07:18:37;;;;;;;3.28;2.97;;;25.90;92.90;;;;;;4146737;28;20072;-70
2023/06/20 07:20:38;;;;;;;6.07;3.22;;;25.70;92.80;;;;;;4145157;28;20088;-66
2023/06/20 07:22:40;;;;;;;3.22;2.90;;;25.60;93.20;;;;;;4133850;28;20100;-67
2023/06/20 07:24:41;;;;;;;5.13;2.67;;;25.40;93.70;;;;;;4129463;28;20030;-70
2023/06/20 07:26:42;;;;;;;5.13;2.88;;;25.40;93.70;;;;;;4129911;28;20058;-72
2023/06/20 07:28:43;;;;;;;4.60;2.90;;;25.40;93.80;;;;;;4129980;28;20528;-63
2023/06/20 07:30:44;;;;;;;15.15;3.67;;;25.40;93.80;;;;;;4129253;28;20449;-73
2023/06/20 07:32:47;;;;;;;12.80;3.63;;;25.70;93.90;;;;;;4129810;28;20108;-70
2023/06/20 07:34:51;;;;;;;4.28;3.30;;;25.80;94.30;;;;;;4128441;28;20156;-71
2023/06/20 07:36:52;;;;;;;9.73;3.20;;;25.80;94.10;;;;;;4130321;28;20086;-66
2023/06/20 07:38:53;;;;;;;10.10;3.70;;;26.00;94.10;;;;;;4128843;28;20038;-65
2023/06/20 07:40:54;;;;;;;17.17;4.32;;;26.50;94.10;;;;;;4130247;28;20031;-71
2023/06/20 07:42:55;;;;;;;11.52;3.58;;;27.00;93.80;;;;;;4129017;28;20065;-66
2023/06/20 07:44:58;;;;;;;9.13;3.50;;;27.40;93.50;;;;;;4130370;28;20081;-67
2023/06/20 07:46:59;;;;;;;9.60;3.22;;;27.50;93.00;;;;;;4128305;28;20042;-71
2023/06/20 07:49:00;;;;;;;7.32;2.90;;;27.70;92.90;;;;;;4128502;28;20050;-70
2023/06/20 07:51:01;;;;;;;5.75;3.20;;;27.70;92.50;;;;;;4123553;28;20085;-66
2023/06/20 07:53:03;;;;;;;17.17;3.28;;;27.10;92.60;;;;;;4129216;28;20474;-74
2023/06/20 07:55:04;;;;;;;12.10;3.10;;;26.70;92.80;;;;;;4128183;28;20105;-67
2023/06/20 07:57:06;;;;;;;7.47;3.45;;;26.70;93.00;;;;;;4129306;28;20042;-68
2023/06/20 07:59:07;;;;;;;10.57;3.03;;;26.60;92.50;;;;;;4130527;28;20023;-69
2023/06/20 08:01:08;;;;;;;5.90;3.03;;;26.80;92.40;;;;;;4128649;28;20039;-67
2023/06/20 08:03:09;;;;;;;7.50;3.33;;;27.00;92.00;;;;;;4129557;28;20034;-65
2023/06/20 08:05:11;;;;;;;8.77;3.67;;;27.10;91.80;;;;;;4128971;28;20455;-65
2023/06/20 08:07:12;;;;;;;17.33;3.47;;;26.80;91.50;;;;;;4130070;28;20030;-63
2023/06/20 08:09:14;;;;;;;10.52;3.60;;;26.80;91.70;;;;;;4128921;28;20089;-72
2023/06/20 08:11:23;;;;;;;13.85;3.85;;;26.50;91.60;;;;;;4127579;28;20124;-68
2023/06/20 08:13:25;;;;;;;12.65;4.05;;;26.50;91.80;;;;;;4128081;28;20046;-64
2023/06/20 08:15:26;;;;;;;18.88;3.78;;;26.80;91.80;;;;;;4129299;28;20030;-63
2023/06/20 08:17:27;;;;;;;6.13;3.05;;;27.10;92.00;;;;;;4127211;28;20089;-68
2023/06/20 08:19:28;;;;;;;6.47;3.15;;;27.50;91.90;;;;;;4127930;28;20054;-67
2023/06/20 08:21:29;;;;;;;4.18;2.63;;;27.90;91.50;;;;;;4128178;28;20466;-69
2023/06/20 08:23:31;;;;;;;4.47;2.70;;;28.30;91.40;;;;;;4127954;28;20046;-64
2023/06/20 08:25:32;;;;;;;3.75;2.70;;;28.40;91.10;;;;;;4125310;28;20114;-67
2023/06/20 08:27:33;;;;;;;6.15;3.25;;;28.40;90.70;;;;;;4144172;28;20054;-64
2023/06/20 08:29:34;;;;;;;3.60;2.60;;;28.10;90.50;;;;;;4129126;28;20215;-70
2023/06/20 08:31:38;;;;;;;3.70;2.58;;;27.40;90.80;;;;;;4128364;28;20050;-64
2023/06/20 08:33:39;;;;;;;5.05;2.95;;;27.10;91.30;;;;;;4128673;28;20089;-64
2023/06/20 08:35:40;;;;;;;4.43;2.30;;;27.30;91.60;;;;;;4128196;28;20467;-65
2023/06/20 08:37:42;;;;;;;3.67;2.65;;;27.80;91.40;;;;;;4141538;28;20578;-65
2023/06/20 08:39:43;;;;;;;8.65;3.00;;;27.90;91.10;;;;;;4124273;28;20026;-67
2023/06/20 08:41:45;;;;;;;4.85;2.83;;;28.20;91.20;;;;;;4128872;28;20046;-65
2023/06/20 08:43:46;;;;;;;2.83;2.42;;;28.40;90.70;;;;;;4128566;28;20081;-65
2023/06/20 08:45:47;;;;;;;3.20;2.40;;;28.50;90.60;;;;;;4129779;28;20046;-70
2023/06/20 08:47:48;;;;;;;7.43;2.80;;;28.70;90.60;;;;;;4128420;28;20077;-64
2023/06/20 08:49:49;;;;;;;8.65;2.92;;;28.50;90.30;;;;;;4129174;28;20042;-64
2023/06/20 08:51:53;;;;;;;5.25;2.63;;;28.20;90.30;;;;;;4127696;28;20034;-69
2023/06/20 08:53:55;;;;;;;10.68;5.35;;;28.10;90.60;;;;;;4129294;28;20137;-71
2023/06/20 08:55:57;;;;;;;11.20;3.33;;;28.10;90.50;;;;;;4127869;28;20081;-70
2023/06/20 08:57:58;;;;;;;5.32;3.05;;;27.90;90.50;;;;;;4129609;28;20467;-67
2023/06/20 09:00:00;;;;;;;6.18;2.35;;;28.00;90.70;;;;;;4128681;28;20030;-62
2023/06/20 09:02:05;;;;;;;3.55;2.20;;;27.80;90.20;;;;;;4127771;28;20046;-64
2023/06/20 09:04:06;;;;;;;17.17;4.60;;;27.60;88.80;;;;;;4127789;28;20034;-67
2023/06/20 09:06:08;;;;;;;15.90;3.80;;;27.60;88.70;;;;;;4128194;28;20092;-74
2023/06/20 09:08:14;;;;;;;3.72;2.10;;;27.80;88.00;;;;;;4128421;28;20077;-66
2023/06/20 09:10:23;;;;;;;2.90;2.40;;;27.40;88.90;;;;;;4127697;28;20043;-67
2023/06/20 09:12:24;;;;;;;5.97;2.33;;;27.10;89.60;;;;;;4128698;28;20030;-72
2023/06/20 09:14:29;;;;;;;5.00;2.40;;;26.90;90.20;;;;;;4127247;28;20032;-71
2023/06/20 09:16:30;;;;;;;3.35;2.33;;;26.80;90.40;;;;;;4128139;28;20146;-69
2023/06/20 09:18:34;;;;;;;4.93;2.58;;;26.70;90.50;;;;;;4127861;28;20026;-67
2023/06/20 09:20:35;;;;;;;4.13;2.38;;;26.60;90.40;;;;;;4128560;28;20557;-69
2023/06/20 09:22:42;;;;;;;3.95;3.05;;;26.60;90.60;;;;;;4127579;28;20018;-71
2023/06/20 09:24:44;;;;;;;3.13;2.30;;;26.50;90.50;;;;;;4142713;28;20865;-70
2023/06/20 09:26:47;;;;;;;2.78;2.58;;;26.10;91.00;;;;;;4128008;28;20039;-68
2023/06/20 09:28:48;;;;;;;5.10;2.65;;;25.80;91.10;;;;;;4128401;28;20439;-70
2023/06/20 09:30:50;;;;;;;3.65;2.70;;;25.80;91.30;;;;;;4127846;28;20031;-68
2023/06/20 09:32:51;;;;;;;5.63;3.17;;;25.80;91.30;;;;;;4112327;28;20034;-70
2023/06/20 09:34:52;;;;;;;4.10;2.20;;;25.90;91.20;;;;;;4127011;28;20083;-62
2023/06/20 09:36:53;;;;;;;2.70;2.50;;;26.10;91.20;;;;;;4125223;28;20506;-63
2023/06/20 09:38:56;;;;;;;2.75;2.50;;;26.10;91.20;;;;;;4127786;28;20120;-64
2023/06/20 09:40:57;;;;;;;4.32;2.47;;;26.10;91.20;;;;;;4131626;28;20100;-63
2023/06/20 09:42:58;;;;;;;5.95;3.30;;;26.20;91.20;;;;;;4127433;28;20096;-62
2023/06/20 09:44:59;;;;;;;8.45;2.53;;;26.30;91.40;;;;;;4127360;28;20443;-62
2023/06/20 09:47:00;;;;;;;2.20;2.00;;;26.40;91.30;;;;;;4126397;28;20426;-63
2023/06/20 09:49:04;;;;;;;3.47;2.35;;;26.20;91.20;;;;;;4127424;28;20031;-62
2023/06/20 09:51:08;;;;;;;2.15;1.95;;;26.10;91.10;;;;;;4127952;28;20092;-61
2023/06/20 09:53:19;;;;;;;3.25;2.25;;;26.00;91.20;;;;;;4125401;28;20050;-61
2023/06/20 09:55:22;;;;;;;1.90;1.80;;;26.00;90.70;;;;;;4127540;28;20464;-64
2023/06/20 09:57:48;;;;;;;6.00;2.33;;;26.00;90.90;;;;;;4127206;28;20034;-62
2023/06/20 09:59:54;;;;;;;8.10;2.80;;;26.20;90.20;;;;;;4127973;28;20054;-65
2023/06/20 10:01:57;;;;;;;7.18;2.42;;;26.20;90.50;;;;;;4125862;28;20074;-62
2023/06/20 10:03:59;;;;;;;2.95;1.98;;;26.20;90.40;;;;;;4127015;28;20126;-61
2023/06/20 10:06:02;;;;;;;2.83;2.30;;;26.20;90.40;;;;;;4125847;28;20483;-70
2023/06/20 10:08:04;;;;;;;2.40;2.20;;;26.20;90.50;;;;;;4128154;28;20030;-70
2023/06/20 10:10:05;;;;;;;3.20;2.40;;;25.90;90.00;;;;;;4126503;28;20027;-67
2023/06/20 10:12:08;;;;;;;6.22;2.88;;;25.60;90.20;;;;;;4127184;28;20030;-62
2023/06/20 10:14:10;;;;;;;35.28;6.40;;;25.60;90.40;;;;;;4126315;28;20116;-61
2023/06/20 10:16:11;;;;;;;4.18;2.72;;;25.70;90.20;;;;;;4127229;28;20030;-68
2023/06/20 10:18:27;;;;;;;14.63;4.40;;;25.90;90.00;;;;;;4126590;28;20440;-69
2023/06/20 10:20:36;;;;;;;4.32;2.08;;;25.90;89.80;;;;;;4127342;28;20050;-72
2023/06/20 10:22:43;;;;;;;7.30;2.35;;;26.00;89.50;;;;;;4124880;28;20113;-71
2023/06/20 10:24:49;;;;;;;3.05;2.10;;;26.00;88.30;;;;;;4126394;28;20042;-67
2023/06/20 10:26:54;;;;;;;1.80;1.70;;;25.90;88.20;;;;;;4127047;28;20527;-77
2023/06/20 10:28:56;;;;;;;2.03;1.92;;;26.10;87.50;;;;;;4127693;28;20046;-63
2023/06/20 10:31:02;;;;;;;5.70;2.45;;;26.20;87.40;;;;;;4126294;28;20096;-64
2023/06/20 10:33:06;;;;;;;5.95;2.30;;;26.20;87.00;;;;;;4126389;28;21401;-71
2023/06/20 10:35:15;;;;;;;3.10;2.17;;;26.10;87.40;;;;;;4126445;28;20104;-67
2023/06/20 10:37:19;;;;;;;12.98;3.22;;;26.20;88.40;;;;;;4127154;28;20467;-70
2023/06/20 10:39:20;;;;;;;64.40;10.32;;;26.30;87.90;;;;;;4124730;28;20042;-67